TAF for UK and Europe - 2347 UTC

RocketRoute Online Flight Planning, FREE trial

Goto METARs

 

TAF for UK and Europe - 12 Dec 2017 - 2347 UTC

ABERDEEN/DYCEEGPD121701Z 1218/1318 21009KT 9999 FEW015 SCT030 TEMPO 1219/1223 7000 -RA BKN014 PROB30 TEMPO 1219/1222 5000 RADZ BKN006 PROB40 TEMPO 1307/1310 6000 SHRA BKN014
AMSTERDAM AP SCHIPHOLEHAM121713Z 1218/1324 20013KT 9999 FEW025 BECMG 1304/1306 19017G27KT 6000 RA SCT008 BKN012 TEMPO 1304/1310 3000 DZRA BKN005 PROB30 TEMPO 1304/1307 RASN BECMG 1310/1312 25015G25KT 9999 NSW SCT020 BECMG 1316/1318 20018G28KT 7000 RA SCT008 BKN012 PROB30 TEMPO 1318/1320 4500 SHRA SCT008 BKN012 SCT015CB BECMG 1319/1321 27015G25KT 9999 NSW SCT025
BELFAST/ALDERGROVEEGAA121702Z 1218/1318 21010KT 9999 FEW012 SCT025 TEMPO 1218/1219 19015G25KT 4000 RADZ BKN004 TEMPO 1300/1312 24015G25KT 6000 SHRA BKN007 PROB30 TEMPO 1308/1312 4000 SHRASN BKN004 TEMPO 1312/1318 24017G27KT 1200 SHRASN BKN004 BKN012CB PROB30 TEMPO 1316/1318 0500 SHSN BKN001
BIERSETEBLG121710Z 1218/1324 19010KT 9999 FEW020 SCT040 TEMPO 1301/1324 20015G25KT BECMG 1305/1307 SCT010 BKN012 TEMPO 1307/1311 4000 RADZ SCT005 BKN007 TEMPO 1317/1321 4000 RA SHRA SCT007 BKN010
BIRMINGHAMEGBB121704Z 1218/1318 21003KT 9999 FEW035 TEMPO 1218/1220 6000 -RA BKN007 PROB30 TEMPO 1218/1224 22015G25KT BECMG 1220/1223 21013KT 3000 RADZ BR BKN003 PROB30 TEMPO 1222/1305 0300 FZFG BKN001 BECMG 1305/1307 9999 NSW SCT030 TEMPO 1308/1315 7000 SHRA BKN009 PROB30 TEMPO 1310/1312 23016G26KT 4000 +SHRA BKN004 BECMG 1312/1315 27012KT BECMG 1315/1318 21014KT
BORDEAUX/MERIGNACLFBD120500Z 1206/1312 VRB03KT CAVOK TEMPO 1206/1209 1500 BCFG BECMG 1304/1306 18013KT TEMPO 1223/1306 1500 BCFG BECMG 1306/1308 BKN020 TEMPO 1308/1312 -RA BKN012 TX09/1215Z TN01/1206Z
BRESTLFRBAMD 122139Z 1221/1324 21012KT 9999 OVC010 TEMPO 1221/1302 24015G25KT 3000 -RA OVC003 BECMG 1302/1304 28008KT BKN020 BECMG 1309/1312 21015G25KT 3000 RA SCT003 OVC005 BECMG 1315/1317 27020G30KT 9999 NSW BKN025 TEMPO 1317/1324 27025G40KT 3000 SHRA BKN015TCU
BRISTOLEGGDAMD 122150Z 1221/1318 19008KT 9999 SCT020 BECMG 1221/1223 5000 -RA BKN009 TEMPO 1221/1301 20018G28KT 3000 RADZ BKN004 PROB30 TEMPO 1222/1301 1400 BR BKN001 BECMG 1300/1303 25010KT 9999 NSW SCT009 PROB30 TEMPO 1301/1303 27015G25KT TEMPO 1305/1312 5000 SHRA BKN009 PROB40 TEMPO 1306/1312 2000 +SHRA BKN004 BECMG 1308/1311 26018G28KT PROB40 TEMPO 1310/1318 26022G38KT
BRUXELLES NATIONALEBBR121710Z 1218/1324 20010KT 9999 FEW020 SCT040 TEMPO 1300/1324 20015G25KT TEMPO 1306/1310 4000 RADZ SCT005 BKN007 TEMPO 1315/1319 4000 RA SHRA SCT008 BKN012
CARDIFFEGFF121704Z 1218/1318 21010KT 9999 FEW045 TEMPO 1218/1301 23017G27KT 6000 RA BKN008 BECMG 1222/1301 30010KT BECMG 1305/1308 24018G28KT TEMPO 1305/1315 7000 SHRA BKN010 PROB30 TEMPO 1310/1313 24025G40KT +RA BKN008 TEMPO 1316/1318 24020G42KT 7000 SHRA PROB40 TEMPO 1316/1318 4000 +SHRA BKN008 BKN030CB
DUBLIN AIRPORTEIDW121700Z 1218/1318 24018G30KT 9999 FEW012 BKN030 BECMG 1218/1219 27015G26KT BECMG 1219/1221 27013KT BECMG 1221/1224 24010KT BECMG 1303/1305 23016G27KT TEMPO 1305/1310 5000 -RA BKN013 FEW018CB BECMG 1310/1312 26015KT BECMG 1312/1314 26016G27KT TEMPO 1314/1318 25020G32KT 5000 SHRA SCT012 SCT018CB PROB30 TEMPO 1315/1318 3000 TSRA BKN010
DUESSELDORFEDDL121700Z 1218/1324 23010KT 9999 BKN012 TEMPO 1218/1222 BKN015 BECMG 1222/1301 17011KT SCT020 BECMG 1303/1306 18015G25KT TEMPO 1308/1314 19020G30KT RA TEMPO 1319/1323 21020G35KT RA BKN013
EAST MIDLANDSEGNXAMD 122300Z 1223/1318 20014KT 9999 SCT035 TEMPO 1223/1224 22017G27KT 4000 RADZ BR BKN004 PROB30 TEMPO 1300/1305 0300 FZFG BKN001 TEMPO 1307/1315 25018G32KT 6000 SHRA BKN005 PROB30 TEMPO 1310/1314 4000 +SHRA BKN003
EDINBURGHEGPHAMD 122013Z 1220/1318 24009KT 9999 SCT020 TEMPO 1220/1222 7000 RA BKN012 TEMPO 1304/1312 24015G25KT 5000 SHRA BKN010 PROB30 TEMPO 1309/1312 4000 SHRASN BKN008 PROB40 TEMPO 1312/1318 25015G25KT 2000 SHRASN -SHSN BKN006
FRANKFURT/M-FLUGHAFENEDDF121700Z 1218/1324 20007KT 9999 SCT035 TEMPO 1218/1309 BKN035 BECMG 1307/1310 20015G25KT TEMPO 1312/1314 4000 RASN BKN030 TEMPO 1314/1324 RA BKN015
GENEVE-COINTRINLSGG122025Z 1221/1403 VRB03KT CAVOK TX04/1315Z TNM04/1306Z PROB30 TEMPO 1305/1309 0600 FZFG VV003 BECMG 1309/1311 23010KT 9999 SCT140 TEMPO 1315/1403 24015G25KT PROB40 TEMPO 1318/1403 4500 RA
GLASGOWEGPFAMD 121923Z 1219/1318 21009KT 9999 FEW030 TEMPO 1219/1220 6000 -RADZ BKN010 PROB40 TEMPO 1219/1220 3000 RADZ BKN005 PROB40 TEMPO 1219/1220 21015G25KT PROB30 TEMPO 1220/1302 7000 SHRA BKN012 TEMPO 1302/1306 6000 SHRA BKN009 PROB40 TEMPO 1303/1306 23018G28KT TEMPO 1306/1318 23015G25KT 4000 -SHRASN SHRAGS BKN007 PROB40 TEMPO 1309/1318 1400 SHSN BKN003
HANNOVEREDDV121700Z 1218/1318 25010KT 9999 BKN006 TEMPO 1220/1301 BKN012 BECMG 1300/1302 SCT006 BKN020 BECMG 1308/1310 18012KT BECMG 1309/1311 OVC010 TEMPO 1309/1318 22015G25KT 3000 -RASN OVC005
COPENHAGEN KASTRUPEKCH121701Z 1218/1318 26010KT 9999 SCT020 BECMG 1300/1303 21020G32KT TEMPO 1312/1318 RA BKN012
KOELN/BONNEDDK121700Z 1218/1324 26006KT 9999 BKN020 BECMG 1218/1221 16007KT TEMPO 1218/1221 BKN013 BECMG 1305/1308 16012KT TEMPO 1310/1315 18015G25KT RA TEMPO 1320/1324 RA BECMG 1321/1324 22011KT
LE BOURGETLFPB121700Z 1219/1318 20005KT 9999 SCT020 BECMG 1222/1224 BKN009 PROB40 TEMPO 1300/1303 BKN004 BECMG 1303/1305 19015G25KT 4000 -RA TEMPO 1305/1309 3000 RA BKN004 PROB40 TEMPO 1306/1310 19015G30KT TEMPO 1315/1318 3000 RA BKN005 PROB40 1316/1318 21020G30KT
LILLELFQQ121700Z 1218/1324 22005KT CAVOK BECMG 1222/1224 20015KT BECMG 1303/1305 3000 RADZ OVC007 TEMPO 1305/1310 20020G35KT PROB30 TEMPO 1305/1307 1200 RASN OVC003 BECMG 1307/1309 9999 NSW TEMPO 1309/1320 2000 RADZ OVC003 TEMPO 1315/1320 20020G40KT FM132000 27015G25KT 9999 BKN030
LIVERPOOLEGGP121704Z 1218/1318 20013KT 9999 FEW045 TEMPO 1218/1224 22015G25KT 6000 RA BKN008 PROB30 TEMPO 1218/1224 4000 +RA RADZ BKN004 TEMPO 1300/1307 BKN003 BECMG 1307/1310 26012KT TEMPO 1307/1315 7000 SHRA BKN010 PROB30 TEMPO 1310/1312 28018G28KT 4000 +SHRA BKN008 TEMPO 1317/1318 7000 SHRA PROB30 TEMPO 1317/1318 27020G30KT 4000 +SHRA BKN014CB
LONDON LUTONEGGWAMD 122104Z 1221/1318 23006KT 9999 FEW020 BECMG 1221/1224 6000 -RA BKN012 PROB30 TEMPO 1222/1302 23015G25KT TEMPO 1223/1302 4000 RADZ BKN003 PROB30 1223/1302 0300 FG BKN001 BECMG 1302/1305 0300 RADZ FG BKN001 BECMG 1303/1305 29010KT BECMG 1305/1308 9999 NSW FEW045 TEMPO 1308/1315 7000 SHRA BKN010 PROB40 TEMPO 1309/1315 4000 +SHRA BKN007 BECMG 1315/1318 28015G25KT
LONDON GATWICKEGKKAMD 122020Z 1220/1324 19006KT 9999 SCT030 TEMPO 1220/1224 8000 RA BKN012 BECMG 1300/1303 BKN012 TEMPO 1300/1305 19015G25KT 6000 RA BKN008 PROB30 TEMPO 1300/1305 3000 RADZ BKN004 BECMG 1305/1308 BKN030 TEMPO 1310/1316 7000 SHRA PROB40 TEMPO 1313/1316 26015G28KT 4000 +SHRA BKN014 TEMPO 1320/1324 26015G30KT 7000 SHRA PROB40 TEMPO 1320/1322 4000 +SHRA BKN014
LONDON HEATHROWEGLL121656Z 1218/1324 20010KT CAVOK PROB30 TEMPO 1218/1221 7000 BECMG 1219/1222 BKN025 TEMPO 1221/1306 7000 -RA BKN012 PROB30 TEMPO 1223/1306 20015G25KT 3000 RADZ BKN005 TEMPO 1310/1316 27018G28KT 7000 SHRA BKN012 PROB30 TEMPO 1312/1316 4000 +SHRA BECMG 1318/1321 26020G30KT TEMPO 1320/1324 6000 SHRA BKN012
LONDON STANSTEDEGSSAMD 122104Z 1221/1324 22006KT 9999 FEW020 BECMG 1221/1224 6000 -RA BKN012 PROB30 TEMPO 1222/1302 23015G25KT TEMPO 1300/1306 3000 RADZ BKN003 PROB30 TEMPO 1302/1307 0300 FG BKN001 BECMG 1303/1305 28010KT BECMG 1306/1309 22012KT 9999 NSW SCT020 TEMPO 1310/1315 21015G25KT 7000 SHRA BKN009 PROB30 TEMPO 1310/1315 3000 +SHRA BECMG 1315/1318 28015G25KT BECMG 1318/1321 22012KT TEMPO 1320/1324 21015G27KT 6000 SHRA BKN010 PROB30 TEMPO 1321/1324 3000 +SHRA BKN006
LUXEMBOURGELLXAMD 121900Z 1218/1324 24010KT 9999 BKN005 BECMG 1222/1224 18005KT 2500 BR BKN003 BECMG 1306/1309 18015G25KT 3000 -SN BKN005 BKN007 BECMG 1313/1315 7000 -RA BKN015 TEMPO 1313/1318 RA BKN012 BECMG 1320/1322 RA SCT005 BKN007 BECMG 1322/1324 25015G30KT
LYON-SATOLASLFLLAMD 122109Z 1221/1324 VRB05KT CAVOK PROB40 TEMPO 1221/1307 2000 BR PROB30 TEMPO 1221/1306 0800 BCFG BECMG 1306/1309 18010KT BECMG 1312/1315 18015G25KT -RA PROB30 TEMPO 1318/1324 18025G40KT
MANCHESTEREGCC121704Z 1218/1324 19013KT 9999 FEW045 TEMPO 1218/1224 22015G25KT 6000 RA BKN008 PROB30 TEMPO 1218/1224 4000 +RA RADZ BKN004 TEMPO 1300/1307 BKN003 PROB30 1303/1305 0300 FZFG VV/// BECMG 1307/1310 25010KT TEMPO 1307/1315 7000 SHRA BKN010 PROB30 TEMPO 1310/1312 28018G28KT 4000 +SHRA BKN008 TEMPO 1317/1324 27018G28KT 4000 SHRASN BKN014CB PROB30 TEMPO 1317/1324 1400 +SHRASN SHSN BKN002
NEWCASTLEEGNT121710Z 1218/1318 24008KT 9999 FEW030 TEMPO 1218/1222 18012KT 6000 RA BKN009 PROB30 TEMPO 1222/1306 7000 BKN012 TEMPO 1306/1312 6000 SHRA BKN009 PROB40 TEMPO 1309/1312 25015G25KT TEMPO 1312/1318 4000 -SHRASN SHGS BKN008 PROB40 TEMPO 1315/1318 BKN004
OOSTENDEEBOS121710Z 1218/1324 19010KT 9999 FEW020 SCT045 TEMPO 1300/1309 20020G36KT TEMPO 1303/1308 4000 RADZ SCT007 BKN009 BECMG 1307/1309 26017KT TEMPO 1313/1317 22018G30KT TEMPO 1315/1318 4000 RA SHRA SCT008 BKN012
PARIS ORLYLFPO 
PARIS CHARLES DE GAULLELFPG121700Z 1219/1324 20005KT 9999 SCT020 BECMG 1222/1224 BKN009 PROB40 TEMPO 1300/1303 BKN004 BECMG 1303/1305 19015G25KT 4000 -RA TEMPO 1305/1309 3000 RA BKN004 PROB40 TEMPO 1306/1310 19015G30KT TEMPO 1315/1320 3000 RA BKN005 PROB40 1316/1324 21020G30KT TX08/1321Z TN02/1222Z
PRESTWICKEGPK121710Z 1218/1318 20009KT 9999 FEW035 BECMG 1218/1221 27012KT TEMPO 1218/1221 21018G30KT 6000 RA BKN008 PROB40 TEMPO 1221/1302 25015G25KT 7000 SHRA BKN012 BECMG 1302/1305 21014KT TEMPO 1302/1308 23018G30KT 6000 SHRA BKN009 PROB40 TEMPO 1308/1312 23018G28KT 4000 -SHRASN SHRAGS BKN007 TEMPO 1312/1318 23018G28KT 4000 -SHRASN SHRAGS BKN007 PROB40 TEMPO 1312/1318 1400 SHSN BKN003
ROTTERDAM AP ZESTIENHOVENEHRD121713Z 1218/1324 20013KT 9999 FEW025 BECMG 1304/1306 19017G27KT 6000 RA SCT008 BKN012 TEMPO 1304/1310 3000 DZRA BKN005 PROB30 TEMPO 1304/1307 RASN BECMG 1310/1312 25015G25KT 9999 NSW SCT020 BECMG 1316/1318 20018G28KT 7000 RA SCT008 BKN012 PROB30 TEMPO 1318/1320 4500 SHRA SCT008 BKN012 SCT015CB BECMG 1319/1321 27015G25KT 9999 NSW SCT025
SHANNONEINNCOR 121825Z 1218/1318 29013KT 9999 FEW012 BKN030 BECMG 1220/1223 26013KT BECMG 1300/1303 23015KT TEMPO 1302/1308 5000 -RA BKN012 FEW018CB BECMG 1303/1305 24017G28KT BECMG 1306/1308 27017G28KT BECMG 1308/1310 28020G33KT TEMPO 1309/1313 -SHRA SCT018CB BECMG 1311/1313 25022G35KT TEMPO 1313/1318 5000 SHRA SCT010 SCT018CB PROB30 TEMPO 1313/1315 3000 TSRA BKN010 BECMG 1314/1316 28020G33KT BECMG 1316/1318 29025G39KT

RocketRoute Online Flight Planning. FREE trial

ABBREVIATIONS

-light
+heavy
/visual range follows
A01autosite - no precip sensor
A02autosite - precip sensor
ACaltocumulus
ACCaltocumulus castellanus
ACSLaltocumulus standing lenticular cloud
AMDamended
ASaltastratus
ASRaltimeter setting region
AUTOautomated report
BCpatches
BECMGbecoming
BKNbroken (5-7 oktas)
BLblowing
BLWbelow
BRmist
BTNbetween
CAVOK+10KM NoCBs NoCloud -5000ft
CBcumulonimbus cloud
CBMAMcumulonimbus mammatus cloud
CCcloud-cloud lightning
CCSLcirrocumulus standing lenticular cloud
CGcloud-ground lightning
CHIcloud-height indicator
CHINOsky condition at 2nd location not avail
CIcirrus
CIGceiling
CITnear or over large towns
CLDcloud
CLRclear
CLRDcleared contamination
CONScontinuous
CORcorrection
CScirrostratus
CUcumulus
DRVR visibility going down
DPdew point
DRlow drifting
DSduststorm
DSNTdistant
DUwidespread dust
DUCdense upper cloud
DZdrizzle
Eeast
EMBDembedded
FCfunnel cloud
FCSTforecast
FEWfew clouds (1-2 oktas)
FGfog
FLflight level
FMfrom
FROPAfrontal passage
FRQfrequent
FTfeet
FUsmoke
FZfreezing
FZRANOfreezing rain sensor out
Ggust
GRhail
GSsmall hail
HVYheavy
HZhaze
ICice crystals, in-cloud lightning
INTSFintensifying
IRVRinstrumented RVR
ISOLisolated
JTSTjet stream
KMkilometer
KMHkilometer per hour
KTknots
Lleft runway
LANinland or over land
LASTlast observation before break
LCAlocally
LDGlanding
LSTLocal Standard Time
LSQline squall
LTGlightning
LVlight and variable
LWRlower
Mminus
MBmillibars
METARaviation routine weather
MIshallow
MODmoderate
MONabove or covering mountains
MOVmoved/moving/movement
MPSmeters per second
MSminus
MSLmean sea level
MTmountains
MTWmountain waves
Nnorth
N/Anot applicable
NATnorth atlantic
NCDno cloud detected
NDVno directional variation
NSWno significant weather
NEnortheast
NOSIGno significant change expected
NOSPECIno SPECI reports are taken
NWnorthwest
NSCno significant cloud
NSWno significant weather
OCNLoccasional
OVCovercast (8 oktas)
OHDoverhead
Pgreater than (plus)
PEice pellets
PK WNDpeak wind
PNOprecipitation amount not available
POdust/sand whirls (dust devils)
PRpartial
PROP30probability 30%
PROP40probability 40%
PRESFRpressure falling rapidly
PRESRRpressure rising rapidly
PSplus
PWINOprecipitation identifier sensor not avail
PYspray
Rright runway
RArain
RMKremarks
RRRocket Route
RVRRunway Visual Range
RWYrunway
RVRNORVR system not available
Ssouth
SAsand
SCSLstratocumulus standing lenticular cloud
SCTscattered (3-4 oktas)
SEsoutheast
SEVsevere
SFCsurface
SGsnow grains
SHshower(s)
SKCsky clear
SLPsea-level pressure
SLPNOsea-level pressure not available
SMstatute miles
SNsnow
SNOCLOrunway closed due to contamination
SNINCRsnow increasing rapidly
SPECIan unscheduled report taken
SQsqualls
SSsandstorm
STNRstationary
SWsouthwest
TAFterminal aerodrome forecast
TKOFtakeoff
TCUtowering cumulus
TLuntil
TOPcloud top
TROPtropopause
TSthunderstorm
TSNOthunderstorm information not available
TWRtower
URVR visibility going up
UPunknown precipitation
UTCtCoordinated Universal Time
Vvariable
VAvolcanic ash
VCin the vicinity
VISvisibility
VISNOvisibility at secondary location not avail
VRBvariable
VSPvertical speed
VVvertical visibility
Wwest
WG/SOWorking Group for Surface Observations
WNDwind
WSPDwind speed
WSwind shear
WSHFTwind shift
WXweather
Zzulu utc time

RUNWAY REPORTS

METAR Runway Reports may include runway reports which contain information about snow/water coverage and friction coefficient.
A runway report consists of eight digits in five groups (RRRRERCReReRBRBR) with the following interpretation:

RRRR

Runway designator. The numerical identifier of the runway in question.
88 means all runways, 99 indicates repetition of previous report.

If there are two parallel runways, the right one is indicated by adding 50
to its number. For example, runway 04L (or 04) is denoted by 04, whereas 54 means runway 04R.

ER

Type of deposit on runway.

CR

Extent of deposit.

eReR

Depth of deposit.

BRBR

Friction coefficient or braking action

Note: CLRD may replace elements t, e and dd if the runway has been cleared of deposits. For example, 54CLRD95 means runway 04R cleared, braking action good.


Military METAR Colour Codes

BlackAirfield closed for non-Met reasons
RED RedCloud under 200ft, and/or Visibility under 800m
AMB AmberBetter than Red, but cloud under 300ft, and/or Visibility under 1600m
YLO YellowBetter than Amber, but cloud under 700ft, and/or Visibility under 3700m.
GRE GreenBetter than Yellow, but cloud under 1500ft, and/or Visibility under 5km
WHT WhiteBetter than Green, but Cloud under 2500ft, and/or Visibility under 8km
BLU BlueCloud 2500ft or above and Visibility 8km or more
Cloud in this case is the lowest cloudbase designated as SCATTERED or worse.


NOTE use of any of these pages are your own responsibility
Always double check with other sources.